Archival Weather

Alykel

Alykel, Russia (UOOO)

Report from: Tuesday, November 21, 2023 7:00 PM UTC
Current time: Friday, July 19, 2024 2:08 AM UTC

Current weather – Weather history – Daily summaries
Weather forecast

Present weatherLight snow, drifting snow
Temperature-27.0°C (-16.6°F)
Wind chill-39.7°C (-39.5°F)
Dew point-29.0°C (-20.2°F)
Winds 11.7 kts (6 m/s, 13.4 mph) South (180°)
Visibility6.2 mi. (10 km)
Clouds Ceiling: Overcast 1,100 ft. (335 m)
Altimeter30.36 in.Hg (1028 mB)
Precip. events QF 6:34 AM
Relative humidity83 %
Density altitude-5,971 ft. (-1,820 m)
Remarks No significant changes expected in the next two hours
Flight conditions Marginal Visual Meteorological Conditions
Raw dataUOOO 211900Z 18006MPS 9999 -SN DRSN OVC011 M27/M29 Q1028 R19/35//60 NOSIG RMK QFE754/1006
An error has occurred. This application may no longer respond until reloaded. Reload 🗙